sensor_id;sensor_type;location;lat;lon;timestamp;P1;durP1;ratioP1;P2;durP2;ratioP2
17935;SDS011;9093;52.062;4.508;2022-07-12T00:01:13;8.38;;;2.72;;
17935;SDS011;9093;52.062;4.508;2022-07-12T00:03:54;6.97;;;3.13;;
17935;SDS011;9093;52.062;4.508;2022-07-12T00:06:34;5.80;;;2.55;;
17935;SDS011;9093;52.062;4.508;2022-07-12T00:09:15;6.78;;;3.03;;
17935;SDS011;9093;52.062;4.508;2022-07-12T00:11:55;4.70;;;3.03;;
17935;SDS011;9093;52.062;4.508;2022-07-12T00:14:37;11.02;;;3.08;;
17935;SDS011;9093;52.062;4.508;2022-07-12T00:17:17;7.10;;;2.80;;
17935;SDS011;9093;52.062;4.508;2022-07-12T00:19:58;4.88;;;2.45;;
17935;SDS011;9093;52.062;4.508;2022-07-12T00:22:38;4.90;;;2.63;;
17935;SDS011;9093;52.062;4.508;2022-07-12T00:25:19;3.67;;;2.20;;
17935;SDS011;9093;52.062;4.508;2022-07-12T00:28:00;4.53;;;2.30;;
17935;SDS011;9093;52.062;4.508;2022-07-12T00:30:40;6.22;;;2.45;;
17935;SDS011;9093;52.062;4.508;2022-07-12T00:33:21;6.53;;;2.47;;
17935;SDS011;9093;52.062;4.508;2022-07-12T00:36:01;4.88;;;2.40;;
17935;SDS011;9093;52.062;4.508;2022-07-12T00:38:42;4.70;;;2.25;;
17935;SDS011;9093;52.062;4.508;2022-07-12T00:41:23;9.15;;;2.78;;
17935;SDS011;9093;52.062;4.508;2022-07-12T00:44:04;6.13;;;2.25;;
17935;SDS011;9093;52.062;4.508;2022-07-12T00:46:45;3.85;;;2.67;;
17935;SDS011;9093;52.062;4.508;2022-07-12T00:49:26;4.43;;;2.45;;
17935;SDS011;9093;52.062;4.508;2022-07-12T00:52:06;6.65;;;2.35;;
17935;SDS011;9093;52.062;4.508;2022-07-12T00:54:47;9.13;;;2.47;;
17935;SDS011;9093;52.062;4.508;2022-07-12T00:57:27;3.55;;;2.10;;
17935;SDS011;9093;52.062;4.508;2022-07-12T01:00:10;6.38;;;2.40;;
17935;SDS011;9093;52.062;4.508;2022-07-12T01:02:55;3.03;;;2.05;;
17935;SDS011;9093;52.062;4.508;2022-07-12T01:05:36;5.30;;;2.30;;
17935;SDS011;9093;52.062;4.508;2022-07-12T01:08:16;3.42;;;2.13;;
17935;SDS011;9093;52.062;4.508;2022-07-12T01:11:00;9.52;;;2.25;;
17935;SDS011;9093;52.062;4.508;2022-07-12T01:13:43;6.43;;;2.10;;
17935;SDS011;9093;52.062;4.508;2022-07-12T01:16:25;3.90;;;2.55;;
17935;SDS011;9093;52.062;4.508;2022-07-12T01:19:06;3.08;;;2.20;;
17935;SDS011;9093;52.062;4.508;2022-07-12T01:21:50;4.87;;;2.23;;
17935;SDS011;9093;52.062;4.508;2022-07-12T01:24:33;5.68;;;2.65;;
17935;SDS011;9093;52.062;4.508;2022-07-12T01:27:14;4.28;;;2.70;;
17935;SDS011;9093;52.062;4.508;2022-07-12T01:29:54;4.20;;;2.70;;
17935;SDS011;9093;52.062;4.508;2022-07-12T01:32:39;8.43;;;2.33;;
17935;SDS011;9093;52.062;4.508;2022-07-12T01:35:21;5.07;;;2.42;;
17935;SDS011;9093;52.062;4.508;2022-07-12T01:38:01;3.95;;;2.67;;
17935;SDS011;9093;52.062;4.508;2022-07-12T01:40:42;4.05;;;2.85;;
17935;SDS011;9093;52.062;4.508;2022-07-12T01:43:22;4.45;;;2.80;;
17935;SDS011;9093;52.062;4.508;2022-07-12T01:46:03;6.55;;;3.00;;
17935;SDS011;9093;52.062;4.508;2022-07-12T01:48:43;5.35;;;3.30;;
17935;SDS011;9093;52.062;4.508;2022-07-12T01:51:24;6.25;;;3.30;;
17935;SDS011;9093;52.062;4.508;2022-07-12T01:54:04;7.20;;;3.30;;
17935;SDS011;9093;52.062;4.508;2022-07-12T01:56:46;6.10;;;2.67;;
17935;SDS011;9093;52.062;4.508;2022-07-12T01:59:27;5.18;;;3.35;;
17935;SDS011;9093;52.062;4.508;2022-07-12T02:02:09;4.33;;;3.10;;
17935;SDS011;9093;52.062;4.508;2022-07-12T02:04:49;4.18;;;2.97;;
17935;SDS011;9093;52.062;4.508;2022-07-12T02:07:30;4.15;;;2.97;;
17935;SDS011;9093;52.062;4.508;2022-07-12T02:10:11;7.32;;;2.97;;
17935;SDS011;9093;52.062;4.508;2022-07-12T02:12:52;3.83;;;2.97;;
17935;SDS011;9093;52.062;4.508;2022-07-12T02:15:32;4.35;;;2.95;;
17935;SDS011;9093;52.062;4.508;2022-07-12T02:18:13;5.00;;;3.03;;
17935;SDS011;9093;52.062;4.508;2022-07-12T02:20:53;7.33;;;3.20;;
17935;SDS011;9093;52.062;4.508;2022-07-12T02:23:34;4.55;;;2.80;;
17935;SDS011;9093;52.062;4.508;2022-07-12T02:26:15;3.88;;;2.92;;
17935;SDS011;9093;52.062;4.508;2022-07-12T02:28:56;6.78;;;2.78;;
17935;SDS011;9093;52.062;4.508;2022-07-12T02:31:36;6.38;;;2.90;;
17935;SDS011;9093;52.062;4.508;2022-07-12T02:34:16;5.22;;;3.30;;
17935;SDS011;9093;52.062;4.508;2022-07-12T02:36:57;5.63;;;3.30;;
17935;SDS011;9093;52.062;4.508;2022-07-12T02:39:37;4.78;;;3.40;;
17935;SDS011;9093;52.062;4.508;2022-07-12T02:42:18;4.80;;;2.92;;
17935;SDS011;9093;52.062;4.508;2022-07-12T02:44:58;4.65;;;3.05;;
17935;SDS011;9093;52.062;4.508;2022-07-12T02:47:39;4.53;;;3.08;;
17935;SDS011;9093;52.062;4.508;2022-07-12T02:50:22;4.47;;;3.17;;
17935;SDS011;9093;52.062;4.508;2022-07-12T02:53:03;5.00;;;3.20;;
17935;SDS011;9093;52.062;4.508;2022-07-12T02:55:44;7.15;;;3.25;;
17935;SDS011;9093;52.062;4.508;2022-07-12T02:58:25;7.30;;;3.25;;
17935;SDS011;9093;52.062;4.508;2022-07-12T03:01:08;6.03;;;3.05;;
17935;SDS011;9093;52.062;4.508;2022-07-12T03:03:49;4.68;;;3.13;;
17935;SDS011;9093;52.062;4.508;2022-07-12T03:06:29;5.40;;;3.47;;
17935;SDS011;9093;52.062;4.508;2022-07-12T03:09:09;5.93;;;3.47;;
17935;SDS011;9093;52.062;4.508;2022-07-12T03:11:50;6.40;;;3.08;;
17935;SDS011;9093;52.062;4.508;2022-07-12T03:14:30;8.87;;;3.20;;
17935;SDS011;9093;52.062;4.508;2022-07-12T03:17:10;5.82;;;3.42;;
17935;SDS011;9093;52.062;4.508;2022-07-12T03:19:50;7.73;;;3.13;;
17935;SDS011;9093;52.062;4.508;2022-07-12T03:22:31;4.90;;;2.90;;
17935;SDS011;9093;52.062;4.508;2022-07-12T03:25:11;5.18;;;3.60;;
17935;SDS011;9093;52.062;4.508;2022-07-12T03:27:52;4.82;;;3.15;;
17935;SDS011;9093;52.062;4.508;2022-07-12T03:30:34;4.20;;;2.92;;
17935;SDS011;9093;52.062;4.508;2022-07-12T03:33:14;4.28;;;3.13;;
17935;SDS011;9093;52.062;4.508;2022-07-12T03:35:54;5.13;;;3.42;;
17935;SDS011;9093;52.062;4.508;2022-07-12T03:38:35;6.93;;;3.10;;
17935;SDS011;9093;52.062;4.508;2022-07-12T03:41:16;6.28;;;4.00;;
17935;SDS011;9093;52.062;4.508;2022-07-12T03:43:57;6.78;;;3.30;;
17935;SDS011;9093;52.062;4.508;2022-07-12T03:46:37;4.43;;;3.27;;
17935;SDS011;9093;52.062;4.508;2022-07-12T03:49:17;4.82;;;2.92;;
17935;SDS011;9093;52.062;4.508;2022-07-12T03:51:57;6.22;;;3.08;;
17935;SDS011;9093;52.062;4.508;2022-07-12T03:54:38;5.80;;;3.75;;
17935;SDS011;9093;52.062;4.508;2022-07-12T03:57:18;6.67;;;3.63;;
17935;SDS011;9093;52.062;4.508;2022-07-12T03:59:59;8.20;;;3.65;;
17935;SDS011;9093;52.062;4.508;2022-07-12T04:02:39;8.00;;;3.40;;
17935;SDS011;9093;52.062;4.508;2022-07-12T04:05:21;4.97;;;3.33;;
17935;SDS011;9093;52.062;4.508;2022-07-12T04:08:05;5.82;;;3.80;;
17935;SDS011;9093;52.062;4.508;2022-07-12T04:10:46;6.00;;;3.83;;
17935;SDS011;9093;52.062;4.508;2022-07-12T04:13:26;9.43;;;3.13;;
17935;SDS011;9093;52.062;4.508;2022-07-12T04:16:06;5.32;;;3.67;;
17935;SDS011;9093;52.062;4.508;2022-07-12T04:18:47;6.22;;;3.58;;
17935;SDS011;9093;52.062;4.508;2022-07-12T04:21:27;3.95;;;3.28;;
17935;SDS011;9093;52.062;4.508;2022-07-12T04:24:07;9.77;;;4.20;;
17935;SDS011;9093;52.062;4.508;2022-07-12T04:26:48;9.70;;;3.65;;
17935;SDS011;9093;52.062;4.508;2022-07-12T04:29:28;7.43;;;3.88;;
17935;SDS011;9093;52.062;4.508;2022-07-12T04:32:09;5.30;;;3.90;;
17935;SDS011;9093;52.062;4.508;2022-07-12T04:34:49;9.02;;;4.18;;
17935;SDS011;9093;52.062;4.508;2022-07-12T04:37:29;9.93;;;4.53;;
17935;SDS011;9093;52.062;4.508;2022-07-12T04:40:10;8.20;;;4.90;;
17935;SDS011;9093;52.062;4.508;2022-07-12T04:42:51;8.50;;;4.93;;
17935;SDS011;9093;52.062;4.508;2022-07-12T04:45:31;7.73;;;4.07;;
17935;SDS011;9093;52.062;4.508;2022-07-12T04:48:11;8.00;;;4.43;;
17935;SDS011;9093;52.062;4.508;2022-07-12T04:50:52;7.93;;;4.32;;
17935;SDS011;9093;52.062;4.508;2022-07-12T04:53:32;5.70;;;4.27;;
17935;SDS011;9093;52.062;4.508;2022-07-12T04:56:12;7.55;;;4.90;;
17935;SDS011;9093;52.062;4.508;2022-07-12T04:58:52;8.20;;;4.77;;
17935;SDS011;9093;52.062;4.508;2022-07-12T05:01:33;6.53;;;4.28;;
17935;SDS011;9093;52.062;4.508;2022-07-12T05:04:13;10.27;;;4.75;;
17935;SDS011;9093;52.062;4.508;2022-07-12T05:06:53;9.15;;;4.22;;
17935;SDS011;9093;52.062;4.508;2022-07-12T05:09:34;6.45;;;4.55;;
17935;SDS011;9093;52.062;4.508;2022-07-12T05:12:14;7.15;;;4.57;;
17935;SDS011;9093;52.062;4.508;2022-07-12T05:14:54;7.88;;;4.53;;
17935;SDS011;9093;52.062;4.508;2022-07-12T05:17:35;9.00;;;5.22;;
17935;SDS011;9093;52.062;4.508;2022-07-12T05:20:15;6.83;;;4.73;;
17935;SDS011;9093;52.062;4.508;2022-07-12T05:22:55;9.13;;;4.97;;
17935;SDS011;9093;52.062;4.508;2022-07-12T05:25:36;10.55;;;5.28;;
17935;SDS011;9093;52.062;4.508;2022-07-12T05:28:16;5.88;;;4.32;;
17935;SDS011;9093;52.062;4.508;2022-07-12T05:30:57;6.97;;;4.97;;
17935;SDS011;9093;52.062;4.508;2022-07-12T05:33:37;7.72;;;4.95;;
17935;SDS011;9093;52.062;4.508;2022-07-12T05:36:18;7.78;;;4.97;;
17935;SDS011;9093;52.062;4.508;2022-07-12T05:38:58;9.18;;;5.22;;
17935;SDS011;9093;52.062;4.508;2022-07-12T05:41:39;6.72;;;5.05;;
17935;SDS011;9093;52.062;4.508;2022-07-12T05:44:19;9.45;;;5.68;;
17935;SDS011;9093;52.062;4.508;2022-07-12T05:46:59;11.13;;;5.60;;
17935;SDS011;9093;52.062;4.508;2022-07-12T05:49:40;8.47;;;4.93;;
17935;SDS011;9093;52.062;4.508;2022-07-12T05:52:20;8.57;;;5.00;;
17935;SDS011;9093;52.062;4.508;2022-07-12T05:55:19;9.65;;;5.57;;
17935;SDS011;9093;52.062;4.508;2022-07-12T05:57:59;11.07;;;5.53;;
17935;SDS011;9093;52.062;4.508;2022-07-12T06:00:39;11.13;;;5.40;;
17935;SDS011;9093;52.062;4.508;2022-07-12T06:03:20;17.33;;;6.67;;
17935;SDS011;9093;52.062;4.508;2022-07-12T06:06:00;11.67;;;6.07;;
17935;SDS011;9093;52.062;4.508;2022-07-12T06:08:40;10.13;;;6.20;;
17935;SDS011;9093;52.062;4.508;2022-07-12T06:11:21;10.80;;;6.47;;
17935;SDS011;9093;52.062;4.508;2022-07-12T06:14:01;11.25;;;6.03;;
17935;SDS011;9093;52.062;4.508;2022-07-12T06:16:41;10.27;;;5.88;;
17935;SDS011;9093;52.062;4.508;2022-07-12T06:19:22;13.07;;;6.20;;
17935;SDS011;9093;52.062;4.508;2022-07-12T06:22:03;16.00;;;6.40;;
17935;SDS011;9093;52.062;4.508;2022-07-12T06:24:44;13.40;;;6.35;;
17935;SDS011;9093;52.062;4.508;2022-07-12T06:27:24;9.67;;;6.13;;
17935;SDS011;9093;52.062;4.508;2022-07-12T06:30:05;8.13;;;5.13;;
17935;SDS011;9093;52.062;4.508;2022-07-12T06:32:46;13.52;;;6.43;;
17935;SDS011;9093;52.062;4.508;2022-07-12T06:35:26;15.60;;;6.35;;
17935;SDS011;9093;52.062;4.508;2022-07-12T06:38:08;17.25;;;7.10;;
17935;SDS011;9093;52.062;4.508;2022-07-12T06:40:48;11.57;;;6.47;;
17935;SDS011;9093;52.062;4.508;2022-07-12T06:43:28;9.63;;;6.30;;
17935;SDS011;9093;52.062;4.508;2022-07-12T06:46:09;9.90;;;6.03;;
17935;SDS011;9093;52.062;4.508;2022-07-12T06:48:50;11.52;;;7.15;;
17935;SDS011;9093;52.062;4.508;2022-07-12T06:51:30;9.03;;;5.77;;
17935;SDS011;9093;52.062;4.508;2022-07-12T06:54:10;11.52;;;5.78;;
17935;SDS011;9093;52.062;4.508;2022-07-12T06:56:51;8.67;;;5.77;;
17935;SDS011;9093;52.062;4.508;2022-07-12T06:59:31;11.23;;;6.90;;
17935;SDS011;9093;52.062;4.508;2022-07-12T07:02:11;13.93;;;6.72;;
17935;SDS011;9093;52.062;4.508;2022-07-12T07:04:52;13.65;;;6.75;;
17935;SDS011;9093;52.062;4.508;2022-07-12T07:07:32;8.77;;;6.23;;
17935;SDS011;9093;52.062;4.508;2022-07-12T07:10:13;10.23;;;5.20;;
17935;SDS011;9093;52.062;4.508;2022-07-12T07:12:54;11.00;;;4.95;;
17935;SDS011;9093;52.062;4.508;2022-07-12T07:15:34;3.00;;;2.08;;
17935;SDS011;9093;52.062;4.508;2022-07-12T07:18:14;7.07;;;4.27;;
17935;SDS011;9093;52.062;4.508;2022-07-12T07:20:55;7.10;;;4.20;;
17935;SDS011;9093;52.062;4.508;2022-07-12T07:23:35;7.55;;;4.63;;
17935;SDS011;9093;52.062;4.508;2022-07-12T07:26:15;7.20;;;4.40;;
17935;SDS011;9093;52.062;4.508;2022-07-12T07:28:56;5.45;;;3.50;;
17935;SDS011;9093;52.062;4.508;2022-07-12T07:31:55;6.88;;;3.35;;
17935;SDS011;9093;52.062;4.508;2022-07-12T07:34:35;4.23;;;2.20;;
17935;SDS011;9093;52.062;4.508;2022-07-12T07:37:15;10.88;;;3.17;;
17935;SDS011;9093;52.062;4.508;2022-07-12T07:39:56;5.70;;;3.47;;
17935;SDS011;9093;52.062;4.508;2022-07-12T07:42:36;4.13;;;2.53;;
17935;SDS011;9093;52.062;4.508;2022-07-12T07:45:16;2.72;;;2.00;;
17935;SDS011;9093;52.062;4.508;2022-07-12T07:47:56;2.70;;;1.80;;
17935;SDS011;9093;52.062;4.508;2022-07-12T07:50:37;3.72;;;2.10;;
17935;SDS011;9093;52.062;4.508;2022-07-12T07:53:18;4.22;;;2.28;;
17935;SDS011;9093;52.062;4.508;2022-07-12T07:55:58;6.35;;;2.30;;
17935;SDS011;9093;52.062;4.508;2022-07-12T07:58:39;3.75;;;2.40;;
17935;SDS011;9093;52.062;4.508;2022-07-12T08:01:20;5.20;;;2.97;;
17935;SDS011;9093;52.062;4.508;2022-07-12T08:04:00;4.35;;;2.60;;
17935;SDS011;9093;52.062;4.508;2022-07-12T08:06:41;8.30;;;2.70;;
17935;SDS011;9093;52.062;4.508;2022-07-12T08:09:21;3.50;;;1.65;;
17935;SDS011;9093;52.062;4.508;2022-07-12T08:12:02;10.00;;;2.80;;
17935;SDS011;9093;52.062;4.508;2022-07-12T08:14:42;6.43;;;2.95;;
17935;SDS011;9093;52.062;4.508;2022-07-12T08:17:23;6.28;;;3.13;;
17935;SDS011;9093;52.062;4.508;2022-07-12T08:20:04;9.33;;;2.50;;
17935;SDS011;9093;52.062;4.508;2022-07-12T08:22:45;5.53;;;2.97;;
17935;SDS011;9093;52.062;4.508;2022-07-12T08:25:26;15.25;;;3.45;;
17935;SDS011;9093;52.062;4.508;2022-07-12T08:28:06;13.53;;;3.20;;
17935;SDS011;9093;52.062;4.508;2022-07-12T08:30:46;5.78;;;2.95;;
17935;SDS011;9093;52.062;4.508;2022-07-12T08:33:27;4.43;;;2.83;;
17935;SDS011;9093;52.062;4.508;2022-07-12T08:36:07;4.60;;;2.88;;
17935;SDS011;9093;52.062;4.508;2022-07-12T08:38:48;4.47;;;2.90;;
17935;SDS011;9093;52.062;4.508;2022-07-12T08:41:29;3.10;;;2.53;;
17935;SDS011;9093;52.062;4.508;2022-07-12T08:44:09;5.35;;;3.10;;
17935;SDS011;9093;52.062;4.508;2022-07-12T08:46:49;5.30;;;2.78;;
17935;SDS011;9093;52.062;4.508;2022-07-12T08:49:32;3.77;;;2.30;;
17935;SDS011;9093;52.062;4.508;2022-07-12T08:52:24;4.33;;;2.60;;
17935;SDS011;9093;52.062;4.508;2022-07-12T08:55:25;6.50;;;2.70;;
17935;SDS011;9093;52.062;4.508;2022-07-12T08:58:16;7.43;;;3.15;;
17935;SDS011;9093;52.062;4.508;2022-07-12T09:00:56;4.28;;;2.67;;
17935;SDS011;9093;52.062;4.508;2022-07-12T09:03:37;4.72;;;2.75;;
17935;SDS011;9093;52.062;4.508;2022-07-12T09:06:17;4.30;;;2.85;;
17935;SDS011;9093;52.062;4.508;2022-07-12T09:08:57;8.50;;;2.80;;
17935;SDS011;9093;52.062;4.508;2022-07-12T09:11:39;6.90;;;2.72;;
17935;SDS011;9093;52.062;4.508;2022-07-12T09:14:26;7.30;;;2.75;;
17935;SDS011;9093;52.062;4.508;2022-07-12T09:17:07;5.75;;;3.15;;
17935;SDS011;9093;52.062;4.508;2022-07-12T09:19:54;5.57;;;3.20;;
17935;SDS011;9093;52.062;4.508;2022-07-12T09:22:35;4.60;;;2.65;;
17935;SDS011;9093;52.062;4.508;2022-07-12T09:25:16;5.03;;;2.33;;
17935;SDS011;9093;52.062;4.508;2022-07-12T09:28:02;4.13;;;2.80;;
17935;SDS011;9093;52.062;4.508;2022-07-12T09:30:47;10.00;;;2.95;;
17935;SDS011;9093;52.062;4.508;2022-07-12T09:33:29;8.00;;;2.63;;
17935;SDS011;9093;52.062;4.508;2022-07-12T09:36:28;4.22;;;2.80;;
17935;SDS011;9093;52.062;4.508;2022-07-12T09:39:09;8.60;;;2.92;;
17935;SDS011;9093;52.062;4.508;2022-07-12T09:41:51;5.20;;;3.22;;
17935;SDS011;9093;52.062;4.508;2022-07-12T09:44:33;6.25;;;3.70;;
17935;SDS011;9093;52.062;4.508;2022-07-12T09:47:14;9.38;;;3.10;;
17935;SDS011;9093;52.062;4.508;2022-07-12T09:49:57;11.63;;;3.58;;
17935;SDS011;9093;52.062;4.508;2022-07-12T09:52:37;6.00;;;2.80;;
17935;SDS011;9093;52.062;4.508;2022-07-12T09:55:19;8.00;;;3.78;;
17935;SDS011;9093;52.062;4.508;2022-07-12T09:58:05;7.00;;;3.30;;
17935;SDS011;9093;52.062;4.508;2022-07-12T10:00:48;7.03;;;3.47;;
17935;SDS011;9093;52.062;4.508;2022-07-12T10:03:31;8.77;;;3.55;;
17935;SDS011;9093;52.062;4.508;2022-07-12T10:06:13;2.90;;;2.00;;
17935;SDS011;9093;52.062;4.508;2022-07-12T10:08:57;7.25;;;3.03;;
17935;SDS011;9093;52.062;4.508;2022-07-12T10:11:37;6.82;;;2.65;;
17935;SDS011;9093;52.062;4.508;2022-07-12T10:14:19;3.13;;;1.92;;
17935;SDS011;9093;52.062;4.508;2022-07-12T10:17:01;7.18;;;2.50;;
17935;SDS011;9093;52.062;4.508;2022-07-12T10:19:44;8.15;;;2.70;;
17935;SDS011;9093;52.062;4.508;2022-07-12T10:22:24;4.00;;;2.13;;
17935;SDS011;9093;52.062;4.508;2022-07-12T10:25:05;6.18;;;3.70;;
17935;SDS011;9093;52.062;4.508;2022-07-12T10:28:06;8.27;;;3.10;;
17935;SDS011;9093;52.062;4.508;2022-07-12T10:30:49;4.60;;;1.98;;
17935;SDS011;9093;52.062;4.508;2022-07-12T10:33:31;5.32;;;2.15;;
17935;SDS011;9093;52.062;4.508;2022-07-12T10:36:12;4.13;;;2.55;;
17935;SDS011;9093;52.062;4.508;2022-07-12T10:39:10;4.85;;;2.58;;
17935;SDS011;9093;52.062;4.508;2022-07-12T10:42:12;4.85;;;2.60;;
17935;SDS011;9093;52.062;4.508;2022-07-12T10:44:55;8.00;;;2.40;;
17935;SDS011;9093;52.062;4.508;2022-07-12T10:47:59;7.88;;;2.60;;
17935;SDS011;9093;52.062;4.508;2022-07-12T10:53:35;4.00;;;2.42;;
17935;SDS011;9093;52.062;4.508;2022-07-12T10:56:24;8.55;;;3.38;;
17935;SDS011;9093;52.062;4.508;2022-07-12T10:59:06;8.48;;;3.40;;
17935;SDS011;9093;52.062;4.508;2022-07-12T11:01:46;8.03;;;3.10;;
17935;SDS011;9093;52.062;4.508;2022-07-12T11:04:28;5.72;;;3.30;;
17935;SDS011;9093;52.062;4.508;2022-07-12T11:07:08;6.03;;;2.97;;
17935;SDS011;9093;52.062;4.508;2022-07-12T11:09:52;13.20;;;1.80;;
17935;SDS011;9093;52.062;4.508;2022-07-12T11:12:33;8.68;;;2.95;;
17935;SDS011;9093;52.062;4.508;2022-07-12T11:15:14;9.07;;;2.50;;
17935;SDS011;9093;52.062;4.508;2022-07-12T11:17:55;5.43;;;2.40;;
17935;SDS011;9093;52.062;4.508;2022-07-12T11:20:35;5.65;;;1.90;;
17935;SDS011;9093;52.062;4.508;2022-07-12T11:23:16;2.80;;;1.80;;
17935;SDS011;9093;52.062;4.508;2022-07-12T11:25:56;3.40;;;2.38;;
17935;SDS011;9093;52.062;4.508;2022-07-12T11:28:39;6.78;;;2.13;;
17935;SDS011;9093;52.062;4.508;2022-07-12T11:31:21;2.10;;;1.60;;
17935;SDS011;9093;52.062;4.508;2022-07-12T11:34:02;4.57;;;1.63;;
17935;SDS011;9093;52.062;4.508;2022-07-12T11:36:42;3.37;;;1.37;;
17935;SDS011;9093;52.062;4.508;2022-07-12T11:42:15;2.45;;;1.40;;
17935;SDS011;9093;52.062;4.508;2022-07-12T11:44:55;2.60;;;1.25;;
17935;SDS011;9093;52.062;4.508;2022-07-12T11:47:36;5.93;;;1.85;;
17935;SDS011;9093;52.062;4.508;2022-07-12T11:50:19;1.93;;;1.30;;
17935;SDS011;9093;52.062;4.508;2022-07-12T11:52:59;5.05;;;1.60;;
17935;SDS011;9093;52.062;4.508;2022-07-12T11:55:56;4.95;;;1.80;;
17935;SDS011;9093;52.062;4.508;2022-07-12T11:58:37;3.25;;;1.27;;
17935;SDS011;9093;52.062;4.508;2022-07-12T12:01:18;7.80;;;1.50;;
17935;SDS011;9093;52.062;4.508;2022-07-12T12:03:58;3.10;;;1.70;;
17935;SDS011;9093;52.062;4.508;2022-07-12T12:06:39;3.50;;;1.48;;
17935;SDS011;9093;52.062;4.508;2022-07-12T12:09:19;6.30;;;1.60;;
17935;SDS011;9093;52.062;4.508;2022-07-12T12:11:59;2.40;;;1.40;;
17935;SDS011;9093;52.062;4.508;2022-07-12T12:14:40;4.80;;;1.70;;
17935;SDS011;9093;52.062;4.508;2022-07-12T12:17:20;1.70;;;1.10;;
17935;SDS011;9093;52.062;4.508;2022-07-12T12:23:15;4.68;;;1.58;;
17935;SDS011;9093;52.062;4.508;2022-07-12T12:26:17;3.00;;;1.30;;
17935;SDS011;9093;52.062;4.508;2022-07-12T12:31:42;3.08;;;1.50;;
17935;SDS011;9093;52.062;4.508;2022-07-12T12:34:36;3.47;;;1.60;;
17935;SDS011;9093;52.062;4.508;2022-07-12T12:37:17;3.60;;;1.33;;
17935;SDS011;9093;52.062;4.508;2022-07-12T12:39:57;7.03;;;1.42;;
17935;SDS011;9093;52.062;4.508;2022-07-12T12:42:37;5.20;;;1.20;;
17935;SDS011;9093;52.062;4.508;2022-07-12T12:45:18;2.22;;;1.33;;
17935;SDS011;9093;52.062;4.508;2022-07-12T12:48:04;5.72;;;1.17;;
17935;SDS011;9093;52.062;4.508;2022-07-12T12:50:49;1.58;;;1.10;;
17935;SDS011;9093;52.062;4.508;2022-07-12T12:53:34;1.75;;;1.10;;
17935;SDS011;9093;52.062;4.508;2022-07-12T12:56:17;2.65;;;1.30;;
17935;SDS011;9093;52.062;4.508;2022-07-12T12:58:57;1.93;;;1.20;;
17935;SDS011;9093;52.062;4.508;2022-07-12T13:01:37;2.73;;;1.43;;
17935;SDS011;9093;52.062;4.508;2022-07-12T13:04:17;5.23;;;1.20;;
17935;SDS011;9093;52.062;4.508;2022-07-12T13:06:58;3.28;;;1.20;;
17935;SDS011;9093;52.062;4.508;2022-07-12T13:09:39;2.75;;;1.42;;
17935;SDS011;9093;52.062;4.508;2022-07-12T13:12:20;2.72;;;1.25;;
17935;SDS011;9093;52.062;4.508;2022-07-12T13:15:15;3.25;;;0.93;;
17935;SDS011;9093;52.062;4.508;2022-07-12T13:17:56;4.53;;;1.02;;
17935;SDS011;9093;52.062;4.508;2022-07-12T13:20:37;3.55;;;1.02;;
17935;SDS011;9093;52.062;4.508;2022-07-12T13:23:17;2.97;;;0.88;;
17935;SDS011;9093;52.062;4.508;2022-07-12T13:25:57;1.60;;;0.85;;
17935;SDS011;9093;52.062;4.508;2022-07-12T13:28:38;1.73;;;0.95;;
17935;SDS011;9093;52.062;4.508;2022-07-12T13:31:18;1.77;;;1.07;;
17935;SDS011;9093;52.062;4.508;2022-07-12T13:33:58;1.42;;;0.70;;
17935;SDS011;9093;52.062;4.508;2022-07-12T13:36:39;3.30;;;1.30;;
17935;SDS011;9093;52.062;4.508;2022-07-12T13:39:19;1.67;;;1.00;;
17935;SDS011;9093;52.062;4.508;2022-07-12T13:42:18;3.22;;;1.10;;
17935;SDS011;9093;52.062;4.508;2022-07-12T13:44:59;1.77;;;1.05;;
17935;SDS011;9093;52.062;4.508;2022-07-12T13:47:39;2.10;;;1.13;;
17935;SDS011;9093;52.062;4.508;2022-07-12T13:50:21;3.33;;;1.20;;
17935;SDS011;9093;52.062;4.508;2022-07-12T13:53:02;2.72;;;1.10;;
17935;SDS011;9093;52.062;4.508;2022-07-12T13:55:43;1.73;;;1.08;;
17935;SDS011;9093;52.062;4.508;2022-07-12T13:58:24;3.65;;;1.30;;
17935;SDS011;9093;52.062;4.508;2022-07-12T14:01:04;2.33;;;1.23;;
17935;SDS011;9093;52.062;4.508;2022-07-12T14:03:44;7.43;;;1.52;;
17935;SDS011;9093;52.062;4.508;2022-07-12T14:06:25;3.43;;;1.13;;
17935;SDS011;9093;52.062;4.508;2022-07-12T14:09:05;5.65;;;1.52;;
17935;SDS011;9093;52.062;4.508;2022-07-12T14:11:46;3.95;;;1.50;;
17935;SDS011;9093;52.062;4.508;2022-07-12T14:14:27;7.20;;;1.75;;
17935;SDS011;9093;52.062;4.508;2022-07-12T14:17:26;8.20;;;1.98;;
17935;SDS011;9093;52.062;4.508;2022-07-12T14:20:07;4.32;;;1.52;;
17935;SDS011;9093;52.062;4.508;2022-07-12T14:22:48;4.05;;;2.45;;
17935;SDS011;9093;52.062;4.508;2022-07-12T14:25:28;4.63;;;2.50;;
17935;SDS011;9093;52.062;4.508;2022-07-12T14:28:09;4.60;;;3.08;;
17935;SDS011;9093;52.062;4.508;2022-07-12T14:30:49;8.75;;;3.10;;
17935;SDS011;9093;52.062;4.508;2022-07-12T14:33:29;8.43;;;3.10;;
17935;SDS011;9093;52.062;4.508;2022-07-12T14:36:10;7.73;;;3.33;;
17935;SDS011;9093;52.062;4.508;2022-07-12T14:38:50;5.32;;;3.40;;
17935;SDS011;9093;52.062;4.508;2022-07-12T14:41:30;6.63;;;3.60;;
17935;SDS011;9093;52.062;4.508;2022-07-12T14:44:11;4.95;;;3.58;;
17935;SDS011;9093;52.062;4.508;2022-07-12T14:46:51;8.80;;;3.90;;
17935;SDS011;9093;52.062;4.508;2022-07-12T14:49:35;5.35;;;3.78;;
17935;SDS011;9093;52.062;4.508;2022-07-12T14:52:17;6.32;;;3.20;;
17935;SDS011;9093;52.062;4.508;2022-07-12T14:54:57;7.22;;;3.28;;
17935;SDS011;9093;52.062;4.508;2022-07-12T14:57:37;7.47;;;3.13;;
17935;SDS011;9093;52.062;4.508;2022-07-12T15:00:19;5.90;;;3.50;;
17935;SDS011;9093;52.062;4.508;2022-07-12T15:03:00;7.18;;;3.33;;
17935;SDS011;9093;52.062;4.508;2022-07-12T15:05:40;7.03;;;3.50;;
17935;SDS011;9093;52.062;4.508;2022-07-12T15:08:20;7.15;;;3.25;;
17935;SDS011;9093;52.062;4.508;2022-07-12T15:11:01;7.63;;;4.17;;
17935;SDS011;9093;52.062;4.508;2022-07-12T15:13:42;5.32;;;3.33;;
17935;SDS011;9093;52.062;4.508;2022-07-12T15:16:22;8.27;;;3.73;;
17935;SDS011;9093;52.062;4.508;2022-07-12T15:19:02;6.57;;;3.95;;
17935;SDS011;9093;52.062;4.508;2022-07-12T15:21:42;12.07;;;3.22;;
17935;SDS011;9093;52.062;4.508;2022-07-12T15:24:23;7.80;;;3.40;;
17935;SDS011;9093;52.062;4.508;2022-07-12T15:27:03;6.60;;;3.85;;
17935;SDS011;9093;52.062;4.508;2022-07-12T15:29:46;7.43;;;3.92;;
17935;SDS011;9093;52.062;4.508;2022-07-12T15:32:27;13.57;;;3.85;;
17935;SDS011;9093;52.062;4.508;2022-07-12T15:35:08;7.60;;;3.90;;
17935;SDS011;9093;52.062;4.508;2022-07-12T15:37:48;6.40;;;3.38;;
17935;SDS011;9093;52.062;4.508;2022-07-12T15:40:28;4.32;;;3.20;;
17935;SDS011;9093;52.062;4.508;2022-07-12T15:43:09;6.78;;;3.45;;
17935;SDS011;9093;52.062;4.508;2022-07-12T15:45:51;13.90;;;5.30;;
17935;SDS011;9093;52.062;4.508;2022-07-12T15:48:31;11.40;;;5.20;;
17935;SDS011;9093;52.062;4.508;2022-07-12T15:51:11;12.77;;;5.83;;
17935;SDS011;9093;52.062;4.508;2022-07-12T15:53:52;7.22;;;3.78;;
17935;SDS011;9093;52.062;4.508;2022-07-12T15:56:33;7.75;;;3.75;;
17935;SDS011;9093;52.062;4.508;2022-07-12T15:59:14;6.90;;;3.50;;
17935;SDS011;9093;52.062;4.508;2022-07-12T16:01:54;10.55;;;3.08;;
17935;SDS011;9093;52.062;4.508;2022-07-12T16:04:35;7.60;;;3.40;;
17935;SDS011;9093;52.062;4.508;2022-07-12T16:07:16;11.70;;;3.50;;
17935;SDS011;9093;52.062;4.508;2022-07-12T16:09:56;18.65;;;6.75;;
17935;SDS011;9093;52.062;4.508;2022-07-12T16:12:37;9.03;;;3.13;;
17935;SDS011;9093;52.062;4.508;2022-07-12T16:15:19;8.77;;;3.72;;
17935;SDS011;9093;52.062;4.508;2022-07-12T16:17:59;12.93;;;3.95;;
17935;SDS011;9093;52.062;4.508;2022-07-12T16:20:41;7.20;;;3.30;;
17935;SDS011;9093;52.062;4.508;2022-07-12T16:23:21;6.90;;;3.60;;
17935;SDS011;9093;52.062;4.508;2022-07-12T16:26:02;5.82;;;3.17;;
17935;SDS011;9093;52.062;4.508;2022-07-12T16:28:43;6.90;;;3.17;;
17935;SDS011;9093;52.062;4.508;2022-07-12T16:31:23;6.20;;;3.10;;
17935;SDS011;9093;52.062;4.508;2022-07-12T16:34:04;6.35;;;3.42;;
17935;SDS011;9093;52.062;4.508;2022-07-12T16:36:44;5.70;;;3.17;;
17935;SDS011;9093;52.062;4.508;2022-07-12T16:39:25;8.07;;;3.80;;